Time;durP1;ratioP1;P1;durP2;ratioP2;P2;SDS_P1;SDS_P2;PMS_P1;PMS_P2;Temp;Humidity;BMP_temperature;BMP_pressure;BME280_temperature;BME280_humidity;BME280_pressure;Samples;Min_cycle;Max_cycle;Signal;HPM_P1;HPM_P2
2021/10/08 00:01:56;;;;;;;17.08;7.88;;;13.90;99.90;;;14.50;85.08;102657.69;4994175;28;20194;-73
2021/10/08 00:04:23;;;;;;;17.02;8.07;;;13.90;99.90;;;14.48;85.38;102656.00;4991215;28;20335;-73
2021/10/08 00:06:51;;;;;;;16.52;8.48;;;13.90;99.90;;;14.46;85.62;102660.44;4986958;28;20210;-73
2021/10/08 00:09:18;;;;;;;16.15;8.18;;;13.90;99.90;;;14.44;86.04;102660.47;4990309;28;20591;-73
2021/10/08 00:11:45;;;;;;;17.55;8.55;;;13.90;99.90;;;14.42;85.96;102653.47;4986406;28;20198;-72
2021/10/08 00:14:12;;;;;;;16.30;8.23;;;13.80;99.90;;;14.39;86.27;102654.44;4998752;28;20843;-73
2021/10/08 00:16:40;;;;;;;18.02;9.05;;;13.80;99.90;;;14.38;86.11;102651.84;4987762;28;20602;-72
2021/10/08 00:19:06;;;;;;;17.95;8.48;;;13.80;99.90;;;14.37;86.32;102652.72;4988906;28;20680;-71
2021/10/08 00:21:35;;;;;;;17.30;8.63;;;13.80;99.90;;;14.34;86.73;102655.41;4990695;28;20629;-74
2021/10/08 00:24:03;;;;;;;18.00;8.55;;;13.70;99.90;;;14.33;86.72;102657.22;4985613;28;20226;-73
2021/10/08 00:26:30;;;;;;;18.30;8.98;;;13.70;99.90;;;14.31;87.01;102651.09;5001006;28;20330;-73
2021/10/08 00:28:57;;;;;;;16.98;8.40;;;13.70;99.90;;;14.28;86.95;102656.44;4983189;28;20194;-72
2021/10/08 00:31:23;;;;;;;17.67;8.73;;;13.70;99.90;;;14.23;87.00;102653.00;4999840;28;20221;-73
2021/10/08 00:33:50;;;;;;;20.15;9.30;;;13.60;99.90;;;14.23;87.00;102652.13;4987476;28;20227;-73
2021/10/08 00:36:17;;;;;;;21.00;10.10;;;13.60;99.90;;;14.21;87.01;102651.28;4991774;28;20187;-73
2021/10/08 00:38:44;;;;;;;21.42;10.35;;;13.60;99.90;;;14.18;87.52;102648.72;4984447;28;20221;-74
2021/10/08 00:41:13;;;;;;;19.20;9.32;;;13.60;99.90;;;14.17;87.39;102652.25;4986793;28;20574;-72
2021/10/08 00:43:40;;;;;;;19.92;9.55;;;13.60;99.90;;;14.14;87.57;102650.56;4987121;28;20746;-72
2021/10/08 00:46:07;;;;;;;20.67;10.40;;;13.60;99.90;;;14.11;87.70;102653.25;4988352;28;20199;-72
2021/10/08 00:48:34;;;;;;;22.38;10.45;;;13.60;99.90;;;14.10;88.00;102651.50;4980467;28;20195;-74
2021/10/08 00:51:01;;;;;;;20.33;8.93;;;13.50;99.90;;;14.08;87.99;102645.44;4985926;28;20229;-73
2021/10/08 00:53:28;;;;;;;21.75;10.25;;;13.50;99.90;;;14.07;88.19;102650.69;4986481;28;20627;-72
2021/10/08 00:55:55;;;;;;;20.13;9.73;;;13.50;99.90;;;14.03;88.43;102649.91;4986064;28;20195;-73
2021/10/08 00:58:25;;;;;;;18.38;10.15;;;13.50;99.90;;;14.03;88.35;102652.56;4979304;28;20195;-72
2021/10/08 01:00:53;;;;;;;18.75;9.73;;;13.50;99.90;;;14.02;88.20;102653.44;4993654;28;20198;-74
2021/10/08 01:03:23;;;;;;;17.73;9.38;;;13.50;99.90;;;14.01;88.47;102654.34;4994358;28;20223;-73
2021/10/08 01:05:50;;;;;;;20.73;10.75;;;13.50;99.90;;;13.98;88.29;102651.78;5002585;28;20673;-72
2021/10/08 01:08:17;;;;;;;22.98;9.93;;;13.40;99.90;;;13.93;88.32;102650.13;4986346;28;20191;-73
2021/10/08 01:10:46;;;;;;;23.20;11.48;;;13.40;99.90;;;13.89;88.52;102641.41;4986292;28;20222;-73
2021/10/08 01:13:17;;;;;;;20.15;10.10;;;13.40;99.90;;;13.84;88.67;102640.66;5007911;28;20273;-73
2021/10/08 01:15:46;;;;;;;20.73;9.70;;;13.30;99.90;;;13.80;88.91;102636.31;4984864;28;21697;-73
2021/10/08 01:18:13;;;;;;;28.88;12.75;;;13.30;99.90;;;13.75;89.08;102638.19;4990470;28;20234;-73
2021/10/08 01:20:41;;;;;;;20.33;10.20;;;13.20;99.90;;;13.73;88.97;102645.25;4989522;28;20889;-73
2021/10/08 01:23:13;;;;;;;20.40;9.38;;;13.20;99.90;;;13.67;89.00;102646.25;4991986;28;20261;-73
2021/10/08 01:25:50;;;;;;;26.02;12.65;;;13.10;99.90;;;13.64;89.26;102646.31;4983501;28;20210;-73
2021/10/08 01:28:22;;;;;;;20.90;10.50;;;13.10;99.90;;;13.60;89.37;102643.72;4989134;28;20273;-74
2021/10/08 01:30:49;;;;;;;20.60;10.13;;;13.10;99.90;;;13.56;89.38;102642.91;4991238;28;20213;-72
2021/10/08 01:33:19;;;;;;;21.92;9.85;;;13.00;99.90;;;13.54;89.73;102649.13;4987605;28;20222;-73
2021/10/08 01:35:53;;;;;;;22.88;10.98;;;13.00;99.90;;;13.51;89.47;102654.44;4991765;28;20214;-72
2021/10/08 01:38:20;;;;;;;20.63;9.63;;;13.00;99.90;;;13.49;90.09;102653.59;4987025;28;20198;-73
2021/10/08 01:40:47;;;;;;;26.42;13.32;;;13.00;99.90;;;13.46;89.92;102659.78;4989324;28;20199;-73
2021/10/08 01:43:18;;;;;;;23.95;11.32;;;13.00;99.90;;;13.46;89.79;102656.28;4987122;28;20222;-73
2021/10/08 01:45:47;;;;;;;20.33;10.38;;;13.00;99.90;;;13.44;90.08;102650.19;4986793;28;20206;-73
2021/10/08 01:48:20;;;;;;;20.73;11.15;;;12.90;99.90;;;13.41;90.04;102647.63;4984812;28;20258;-73
2021/10/08 01:50:47;;;;;;;19.05;10.35;;;12.90;99.90;;;13.42;90.20;102655.47;4989670;28;20214;-72
2021/10/08 01:53:15;;;;;;;20.52;9.68;;;12.90;99.90;;;13.41;89.88;102644.97;4982376;28;20226;-72
2021/10/08 01:55:46;;;;;;;18.45;9.05;;;12.90;99.90;;;13.39;90.09;102652.03;4985534;28;20230;-73
2021/10/08 01:58:13;;;;;;;16.33;8.70;;;12.80;99.90;;;13.36;90.30;102649.47;4991426;28;20202;-72
2021/10/08 02:00:42;;;;;;;18.25;9.05;;;12.80;99.90;;;13.36;90.01;102652.09;4989160;28;20199;-73
2021/10/08 02:03:19;;;;;;;20.60;9.68;;;12.80;99.90;;;13.35;90.08;102647.72;4985865;28;20222;-73
2021/10/08 02:05:45;;;;;;;18.42;9.15;;;12.80;99.90;;;13.35;90.18;102653.84;4987383;28;20300;-73
2021/10/08 02:08:14;;;;;;;20.58;10.68;;;12.80;99.90;;;13.34;90.00;102652.13;5005099;28;20285;-73
2021/10/08 02:10:41;;;;;;;19.30;9.52;;;12.80;99.90;;;13.32;90.42;102653.03;4995253;28;20302;-74
2021/10/08 02:13:08;;;;;;;17.10;8.77;;;12.80;99.90;;;13.29;90.70;102653.09;4983915;28;20214;-74
2021/10/08 02:15:37;;;;;;;18.50;9.40;;;12.80;99.90;;;13.26;90.42;102647.88;4984324;28;20287;-72
2021/10/08 02:18:04;;;;;;;18.88;9.15;;;12.70;99.90;;;13.26;90.54;102656.63;4991893;28;20685;-71
2021/10/08 02:20:32;;;;;;;18.38;8.93;;;12.70;99.90;;;13.25;90.61;102651.38;4989167;28;20213;-73
2021/10/08 02:22:58;;;;;;;19.27;9.43;;;12.70;99.90;;;13.24;90.65;102649.66;4981294;28;20541;-74
2021/10/08 02:25:27;;;;;;;19.55;9.77;;;12.70;99.90;;;13.25;90.51;102667.16;4989645;28;20238;-73
2021/10/08 02:27:54;;;;;;;17.70;8.32;;;12.70;99.90;;;13.22;90.42;102659.34;4987709;28;20294;-71
2021/10/08 02:30:21;;;;;;;17.95;9.00;;;12.60;99.90;;;13.21;90.64;102670.75;4985609;28;20211;-74
2021/10/08 02:32:49;;;;;;;17.95;8.80;;;12.60;99.90;;;13.19;90.75;102668.16;4982961;28;20191;-73
2021/10/08 02:35:16;;;;;;;18.25;9.20;;;12.60;99.90;;;13.17;90.67;102659.41;4984622;28;20198;-73
2021/10/08 02:37:42;;;;;;;19.88;9.18;;;12.50;99.90;;;13.16;90.55;102662.09;4986286;28;20679;-73
2021/10/08 02:40:10;;;;;;;17.70;9.38;;;12.50;99.90;;;13.16;90.68;102668.19;4983932;28;20588;-74
2021/10/08 02:42:38;;;;;;;20.55;9.95;;;12.50;99.90;;;13.15;90.65;102674.34;4987164;28;20301;-72
2021/10/08 02:45:12;;;;;;;19.73;10.38;;;12.40;99.90;;;13.13;90.42;102675.28;4991413;28;20210;-73
2021/10/08 02:47:39;;;;;;;20.17;10.45;;;12.40;99.90;;;13.09;90.63;102673.59;4997972;28;20179;-74
2021/10/08 02:50:13;;;;;;;21.00;10.27;;;12.40;99.90;;;13.06;90.94;102674.47;4993771;28;20199;-74
2021/10/08 02:52:49;;;;;;;21.73;10.73;;;12.40;99.90;;;13.04;91.11;102678.03;4995983;28;20195;-76
2021/10/08 02:55:18;;;;;;;19.65;10.13;;;12.40;99.90;;;13.04;91.10;102683.31;5005478;28;20198;-74
2021/10/08 02:57:46;;;;;;;19.02;10.55;;;12.40;99.90;;;13.01;91.42;102678.06;4996105;28;20270;-75
2021/10/08 03:00:15;;;;;;;20.75;10.00;;;12.30;99.90;;;13.01;91.39;102684.19;4992250;28;20297;-74
2021/10/08 03:02:42;;;;;;;19.63;10.25;;;12.40;99.90;;;13.01;91.21;102684.19;4993397;28;20233;-73
2021/10/08 03:05:11;;;;;;;18.60;10.27;;;12.30;99.90;;;13.00;91.72;102692.09;4992830;28;20222;-75
2021/10/08 03:07:38;;;;;;;20.10;10.27;;;12.30;99.90;;;12.99;91.55;102685.09;4997708;28;20191;-74
2021/10/08 03:10:09;;;;;;;22.08;10.65;;;12.30;99.90;;;12.98;91.45;102678.97;4995090;28;20190;-73
2021/10/08 03:12:37;;;;;;;22.63;11.18;;;12.30;99.90;;;12.97;91.74;102681.63;4993294;28;20199;-74
2021/10/08 03:15:07;;;;;;;23.40;11.20;;;12.30;99.90;;;12.95;91.46;102693.91;4991439;28;20265;-74
2021/10/08 03:17:35;;;;;;;21.38;10.52;;;12.30;99.90;;;12.95;91.82;102688.66;4994468;28;20553;-72
2021/10/08 03:20:03;;;;;;;23.63;11.88;;;12.30;99.90;;;12.94;91.79;102692.19;4997364;28;20245;-74
2021/10/08 03:22:30;;;;;;;21.77;11.43;;;12.30;99.90;;;12.93;91.48;102693.09;4992269;28;20877;-74
2021/10/08 03:25:02;;;;;;;22.10;11.32;;;12.20;99.90;;;12.93;91.77;102700.97;4992413;28;20698;-74
2021/10/08 03:27:29;;;;;;;22.40;10.90;;;12.20;99.90;;;12.91;91.79;102694.88;5002488;28;20310;-74
2021/10/08 03:29:56;;;;;;;21.10;11.43;;;12.20;99.90;;;12.90;91.84;102696.63;4995445;28;20213;-75
2021/10/08 03:32:25;;;;;;;22.35;10.63;;;12.20;99.90;;;12.90;91.79;102693.13;4986583;28;20305;-74
2021/10/08 03:34:52;;;;;;;24.88;11.32;;;12.20;99.90;;;12.90;91.97;102695.75;4991625;28;20217;-72
2021/10/08 03:37:24;;;;;;;27.88;12.88;;;12.30;99.90;;;12.88;91.73;102703.66;4994638;28;20195;-73
2021/10/08 03:39:51;;;;;;;23.27;12.40;;;12.30;99.90;;;12.87;91.80;102704.56;4992176;28;20203;-75
2021/10/08 03:42:20;;;;;;;24.65;12.80;;;12.20;99.90;;;12.87;91.91;102703.69;4989245;28;20230;-73
2021/10/08 03:44:54;;;;;;;25.15;13.00;;;12.20;99.90;;;12.87;91.98;102706.31;4990790;28;20320;-72
2021/10/08 03:47:26;;;;;;;28.42;14.27;;;12.20;99.90;;;12.88;92.01;102697.56;4991621;28;20200;-73
2021/10/08 03:49:54;;;;;;;27.55;13.82;;;12.30;99.90;;;12.89;91.74;102700.16;4994615;28;20259;-72
2021/10/08 03:52:21;;;;;;;28.77;13.73;;;12.20;99.90;;;12.88;91.97;102716.78;5011728;28;20187;-74
2021/10/08 03:54:48;;;;;;;28.45;13.63;;;12.20;99.90;;;12.86;91.91;102717.72;4998354;28;20222;-75
2021/10/08 03:57:15;;;;;;;29.10;13.90;;;12.20;99.90;;;12.82;91.66;102718.63;4997242;28;20190;-73
2021/10/08 03:59:41;;;;;;;29.77;14.45;;;12.20;99.90;;;12.75;91.67;102727.50;4995543;28;20206;-74
2021/10/08 04:02:09;;;;;;;36.05;15.30;;;12.10;99.90;;;12.69;91.90;102724.97;4995522;28;20191;-74
2021/10/08 04:04:36;;;;;;;30.35;15.07;;;12.00;99.90;;;12.67;91.92;102734.63;4988949;28;20219;-74
2021/10/08 04:07:04;;;;;;;37.45;16.48;;;12.00;99.90;;;12.61;92.09;102725.94;4995223;28;20214;-74
2021/10/08 04:09:31;;;;;;;35.55;15.85;;;11.90;99.90;;;12.60;92.20;102724.19;4995732;28;20195;-74
2021/10/08 04:11:58;;;;;;;39.95;18.23;;;11.90;99.90;;;12.58;92.31;102730.34;4997306;28;20218;-74
2021/10/08 04:14:30;;;;;;;38.63;18.65;;;11.90;99.90;;;12.56;92.65;102734.75;5026042;28;20221;-74
2021/10/08 04:16:58;;;;;;;42.45;17.75;;;11.80;99.90;;;12.55;92.45;102733.03;4995189;28;20225;-74
2021/10/08 04:19:25;;;;;;;45.63;19.95;;;11.80;99.90;;;12.53;92.75;102727.78;4997210;28;20187;-73
2021/10/08 04:21:52;;;;;;;42.58;19.08;;;11.80;99.90;;;12.54;93.00;102737.41;4998515;28;20202;-74
2021/10/08 04:24:21;;;;;;;38.72;17.75;;;11.80;99.90;;;12.54;93.14;102737.41;4997361;28;20444;-74
2021/10/08 04:26:48;;;;;;;39.67;17.73;;;11.80;99.90;;;12.55;93.11;102735.66;5006231;28;20201;-77
2021/10/08 04:29:15;;;;;;;37.53;17.13;;;11.80;99.90;;;12.56;93.12;102738.25;5011300;28;20198;-73
2021/10/08 04:31:42;;;;;;;41.03;17.65;;;11.90;99.90;;;12.57;93.29;102741.75;4997258;28;20221;-75
2021/10/08 04:34:09;;;;;;;45.08;18.70;;;11.90;99.90;;;12.58;93.08;102736.47;4995829;28;20253;-75
2021/10/08 04:36:40;;;;;;;38.95;18.20;;;11.90;99.90;;;12.56;92.95;102730.38;4993799;28;20187;-75
2021/10/08 04:39:08;;;;;;;36.83;18.23;;;11.90;99.90;;;12.58;92.80;102730.34;4995144;28;20668;-74
2021/10/08 04:41:36;;;;;;;38.25;18.20;;;11.80;99.90;;;12.59;92.77;102734.72;4999952;28;20198;-74
2021/10/08 04:44:09;;;;;;;38.75;18.83;;;11.80;99.90;;;12.55;92.58;102733.91;4999636;28;20309;-74
2021/10/08 04:46:40;;;;;;;37.97;18.23;;;11.80;99.90;;;12.53;92.45;102740.94;4999242;28;20198;-74
2021/10/08 04:49:11;;;;;;;39.45;18.80;;;11.80;99.90;;;12.52;92.31;102735.69;4982537;28;20208;-73
2021/10/08 04:51:40;;;;;;;36.67;17.30;;;11.80;99.90;;;12.51;91.94;102742.69;4973253;28;20750;-73
2021/10/08 04:54:08;;;;;;;37.33;18.13;;;11.70;99.90;;;12.53;91.98;102748.81;4989984;28;20781;-72
2021/10/08 04:56:36;;;;;;;35.28;18.20;;;11.70;99.90;;;12.53;91.84;102743.56;4987084;28;20202;-73
2021/10/08 04:59:04;;;;;;;35.03;18.00;;;11.80;99.90;;;12.56;91.65;102746.13;4994569;28;20209;-73
2021/10/08 05:01:31;;;;;;;36.05;18.20;;;11.80;99.90;;;12.56;91.52;102748.75;4998234;28;20729;-74
2021/10/08 05:03:59;;;;;;;38.92;18.75;;;11.80;99.90;;;12.53;91.39;102740.94;4988157;28;20287;-74
2021/10/08 05:06:27;;;;;;;41.95;19.48;;;11.80;99.90;;;12.53;91.40;102745.31;4990905;28;20191;-74
2021/10/08 05:08:57;;;;;;;38.65;19.80;;;11.70;99.90;;;12.52;91.54;102743.56;4993206;28;20805;-73
2021/10/08 05:11:25;;;;;;;42.60;19.65;;;11.70;99.90;;;12.51;91.50;102747.94;4991144;28;20261;-75
2021/10/08 05:13:53;;;;;;;39.13;18.58;;;11.70;99.90;;;12.52;91.30;102748.81;5009326;28;20236;-73
2021/10/08 05:16:20;;;;;;;40.60;19.33;;;11.70;99.90;;;12.50;91.16;102743.59;4986832;28;20190;-74
2021/10/08 05:18:47;;;;;;;41.47;20.08;;;11.80;99.90;;;12.50;91.42;102746.22;4990163;28;20210;-74
2021/10/08 05:21:17;;;;;;;40.67;20.05;;;11.70;99.90;;;12.52;91.71;102749.69;4991740;28;20203;-74
2021/10/08 05:23:45;;;;;;;42.20;19.48;;;11.80;99.90;;;12.53;91.79;102751.44;4991272;28;20222;-73
2021/10/08 05:26:12;;;;;;;41.33;19.75;;;11.80;99.90;;;12.53;91.50;102745.31;4991792;28;20278;-74
2021/10/08 05:28:39;;;;;;;38.00;20.10;;;11.80;99.90;;;12.51;91.68;102753.19;4986727;28;20670;-72
2021/10/08 05:31:07;;;;;;;40.08;19.98;;;11.80;99.90;;;12.51;91.71;102750.56;4984139;28;20207;-74
2021/10/08 05:33:34;;;;;;;42.28;20.60;;;11.80;99.90;;;12.52;91.58;102752.28;4991877;28;20251;-77
2021/10/08 05:36:01;;;;;;;40.42;20.48;;;11.80;99.90;;;12.53;91.39;102758.44;4993288;28;20290;-73
2021/10/08 05:38:29;;;;;;;42.67;21.42;;;11.80;99.90;;;12.54;91.32;102761.03;4989237;28;20301;-74
2021/10/08 05:40:56;;;;;;;41.97;19.30;;;11.80;99.90;;;12.52;91.46;102757.56;4999741;28;20281;-72
2021/10/08 05:43:25;;;;;;;41.30;19.98;;;11.70;99.90;;;12.52;91.28;102757.56;4989390;28;20317;-74
2021/10/08 05:45:56;;;;;;;40.55;19.95;;;11.80;99.90;;;12.52;91.46;102756.72;4991340;28;20225;-76
2021/10/08 05:48:25;;;;;;;42.92;20.38;;;11.80;99.90;;;12.51;91.53;102763.72;4984461;28;20616;-74
2021/10/08 05:50:52;;;;;;;42.90;20.05;;;11.80;99.90;;;12.54;91.56;102774.16;4992047;28;20744;-74
2021/10/08 05:53:20;;;;;;;41.88;20.08;;;11.80;99.90;;;12.55;91.50;102772.41;4980587;28;20226;-73
2021/10/08 05:55:47;;;;;;;37.60;19.95;;;11.80;99.90;;;12.54;91.44;102768.91;4992181;28;20629;-73
2021/10/08 05:58:14;;;;;;;44.00;21.50;;;11.80;99.90;;;12.54;91.37;102776.78;4987446;28;20230;-74
2021/10/08 06:00:41;;;;;;;47.58;23.17;;;11.80;99.90;;;12.53;91.30;102769.81;4990920;28;20257;-75
2021/10/08 06:03:08;;;;;;;48.35;22.30;;;11.80;99.90;;;12.52;91.30;102777.72;4983248;28;20202;-76
2021/10/08 06:05:38;;;;;;;46.22;22.45;;;11.80;99.90;;;12.52;91.30;102772.47;4984079;28;20195;-74
2021/10/08 06:08:07;;;;;;;58.78;25.60;;;11.80;99.90;;;12.53;91.21;102777.69;4983973;28;20202;-74
2021/10/08 06:10:37;;;;;;;46.35;22.75;;;11.80;99.90;;;12.53;90.88;102780.31;5003376;28;20186;-74
2021/10/08 06:13:04;;;;;;;46.58;22.27;;;11.80;99.90;;;12.50;90.64;102785.63;4984409;28;20217;-74
2021/10/08 06:15:32;;;;;;;48.97;23.58;;;11.80;99.90;;;12.49;90.85;102783.84;4988691;28;20199;-74
2021/10/08 06:17:59;;;;;;;49.72;22.83;;;11.70;99.90;;;12.49;90.66;102783.84;4990240;28;20190;-75
2021/10/08 06:20:27;;;;;;;52.03;24.27;;;11.80;99.90;;;12.49;90.75;102781.22;5002323;28;20203;-73
2021/10/08 06:22:58;;;;;;;47.50;23.27;;;11.80;99.90;;;12.51;90.61;102787.34;4987800;28;20207;-75
2021/10/08 06:25:26;;;;;;;46.28;22.33;;;11.80;99.90;;;12.53;90.43;102792.56;4981035;28;20198;-73
2021/10/08 06:27:57;;;;;;;47.72;21.75;;;11.80;99.90;;;12.53;90.19;102797.81;5005017;28;20191;-73
2021/10/08 06:30:27;;;;;;;46.72;20.70;;;11.80;99.90;;;12.52;90.16;102796.94;4990432;28;20202;-76
2021/10/08 06:32:54;;;;;;;44.80;21.70;;;11.80;99.90;;;12.50;90.09;102797.88;4987537;28;20211;-74
2021/10/08 06:35:22;;;;;;;44.42;20.35;;;11.80;99.90;;;12.50;89.88;102804.00;4982708;28;20246;-73
2021/10/08 06:37:52;;;;;;;48.08;20.17;;;11.80;99.90;;;12.50;89.50;102797.88;4990239;28;20198;-76
2021/10/08 06:40:21;;;;;;;41.50;20.50;;;11.80;99.90;;;12.52;89.32;102810.06;4984597;28;20187;-74
2021/10/08 06:42:49;;;;;;;42.55;20.05;;;11.80;99.90;;;12.53;89.34;102808.34;4987692;28;20269;-75
2021/10/08 06:45:25;;;;;;;44.17;20.30;;;11.80;99.90;;;12.58;89.51;102807.41;4983869;28;20226;-75
2021/10/08 06:47:53;;;;;;;42.85;19.98;;;11.80;99.90;;;12.61;89.14;102809.97;4984631;28;20190;-74
2021/10/08 06:50:21;;;;;;;44.58;20.65;;;11.90;99.90;;;12.63;88.79;102818.72;4991950;28;20223;-74
2021/10/08 06:52:49;;;;;;;40.25;19.45;;;11.90;99.90;;;12.68;88.56;102825.66;4985767;28;20226;-74
2021/10/08 06:55:16;;;;;;;45.20;22.25;;;11.90;99.90;;;12.69;88.24;102822.16;4984828;28;20286;-73
2021/10/08 06:57:44;;;;;;;41.17;21.13;;;12.00;99.90;;;12.69;87.77;102828.28;4991190;28;20195;-75
2021/10/08 07:00:13;;;;;;;44.75;22.35;;;12.00;99.90;;;12.70;87.54;102829.13;4981670;28;20199;-74
2021/10/08 07:02:53;;;;;;;46.28;24.88;;;12.00;99.90;;;12.70;87.28;102839.66;4989401;28;20222;-75
2021/10/08 07:05:26;;;;;;;42.97;23.73;;;12.00;99.90;;;12.72;87.17;102837.88;4986896;28;20202;-74
2021/10/08 07:07:54;;;;;;;41.70;21.90;;;12.00;99.90;;;12.72;87.04;102835.25;4991206;28;20581;-74
2021/10/08 07:10:24;;;;;;;46.35;22.00;;;12.00;99.90;;;12.74;86.93;102841.38;4988876;28;20569;-73
2021/10/08 07:12:52;;;;;;;41.53;21.05;;;12.00;99.90;;;12.79;86.93;102844.81;4991253;28;20226;-75
2021/10/08 07:15:19;;;;;;;41.10;21.10;;;12.10;99.90;;;12.85;86.87;102842.09;4988433;28;20207;-75
2021/10/08 07:17:49;;;;;;;41.08;20.42;;;12.20;99.90;;;12.92;86.58;102842.00;4990281;28;20217;-76
2021/10/08 07:20:19;;;;;;;42.47;20.90;;;12.30;99.90;;;13.00;86.43;102845.41;4990303;28;20744;-76
2021/10/08 07:22:47;;;;;;;40.25;20.27;;;12.40;99.90;;;13.08;86.17;102858.50;4986016;28;20195;-75
2021/10/08 07:25:14;;;;;;;40.08;19.67;;;12.50;99.90;;;13.15;86.17;102846.97;4983321;28;20217;-75
2021/10/08 07:27:43;;;;;;;40.22;20.58;;;12.60;99.90;;;13.18;86.08;102847.81;4990305;28;20194;-74
2021/10/08 07:30:13;;;;;;;39.13;20.73;;;12.60;99.90;;;13.24;85.51;102854.75;4989333;28;20201;-76
2021/10/08 07:32:41;;;;;;;44.78;23.65;;;12.70;99.90;;;13.26;85.03;102853.84;4988964;28;20579;-74
2021/10/08 07:35:10;;;;;;;41.92;22.00;;;12.80;99.90;;;13.33;85.01;102844.97;4993893;28;20762;-75
2021/10/08 07:37:38;;;;;;;38.25;18.55;;;12.80;99.90;;;13.37;84.40;102845.81;4981448;28;20579;-72
2021/10/08 07:40:07;;;;;;;40.67;19.85;;;12.90;99.90;;;13.40;84.08;102851.00;4991225;28;20624;-75
2021/10/08 07:42:35;;;;;;;40.50;20.73;;;13.00;99.90;;;13.44;84.36;102848.34;4998169;28;20207;-74
2021/10/08 07:45:02;;;;;;;35.67;18.50;;;13.00;99.90;;;13.48;83.88;102846.53;4997404;28;20281;-75
2021/10/08 07:47:30;;;;;;;36.63;17.92;;;13.00;99.90;;;13.49;83.49;102850.88;5022561;28;20191;-75
2021/10/08 07:49:57;;;;;;;36.28;17.45;;;13.10;99.90;;;13.48;83.27;102846.53;4991548;28;20650;-75
2021/10/08 07:52:24;;;;;;;34.15;17.13;;;13.00;99.90;;;13.50;83.04;102852.63;4991203;28;20215;-74
2021/10/08 07:54:50;;;;;;;36.35;16.90;;;13.00;99.90;;;13.52;82.96;102848.19;4993655;28;20219;-75
2021/10/08 07:57:17;;;;;;;32.78;16.75;;;13.10;99.90;;;13.56;82.80;102849.91;4990179;28;20199;-74
2021/10/08 07:59:44;;;;;;;33.28;17.30;;;13.10;99.90;;;13.59;82.67;102853.38;4991228;28;20194;-75
2021/10/08 08:02:11;;;;;;;31.23;17.02;;;13.20;99.90;;;13.59;82.72;102858.63;4991634;28;20663;-75
2021/10/08 08:04:39;;;;;;;35.50;16.83;;;13.20;99.90;;;13.63;82.53;102856.81;4990137;28;20213;-74
2021/10/08 08:07:06;;;;;;;32.08;16.48;;;13.20;99.90;;;13.67;82.50;102861.13;4989130;28;20201;-75
2021/10/08 08:09:33;;;;;;;36.15;17.23;;;13.20;99.90;;;13.72;82.61;102864.56;4989786;28;20196;-75
2021/10/08 08:12:01;;;;;;;32.65;16.38;;;13.30;99.90;;;13.76;82.38;102861.00;4989616;28;20214;-74
2021/10/08 08:14:28;;;;;;;35.65;17.65;;;13.30;99.90;;;13.80;82.14;102860.03;4988388;28;20306;-75
2021/10/08 08:16:55;;;;;;;33.88;16.13;;;13.30;99.90;;;13.82;81.77;102867.03;4991310;28;20202;-74
2021/10/08 08:19:23;;;;;;;35.22;16.52;;;13.30;99.90;;;13.83;81.52;102862.63;4989081;28;20191;-73
2021/10/08 08:21:51;;;;;;;33.17;16.58;;;13.40;99.90;;;13.87;81.70;102874.84;4992133;28;20218;-74
2021/10/08 08:24:18;;;;;;;34.30;16.58;;;13.40;99.90;;;13.93;81.69;102869.50;4986898;28;20703;-74
2021/10/08 08:26:44;;;;;;;30.35;16.23;;;13.40;99.90;;;14.00;81.57;102868.47;4991469;28;20562;-75
2021/10/08 08:29:11;;;;;;;33.38;16.63;;;13.50;99.90;;;14.05;81.02;102869.25;4990164;28;20668;-76
2021/10/08 08:31:38;;;;;;;31.60;16.08;;;13.60;99.90;;;14.08;80.82;102874.50;4991347;28;20396;-75
2021/10/08 08:34:05;;;;;;;30.33;15.43;;;13.60;99.90;;;14.11;80.56;102863.03;4986831;28;20227;-75
2021/10/08 08:36:32;;;;;;;33.80;15.95;;;13.60;99.90;;;14.17;80.25;102861.16;4992251;28;20205;-75
2021/10/08 08:39:04;;;;;;;28.48;14.93;;;13.70;99.90;;;14.23;79.92;102861.06;4990058;28;20257;-73
2021/10/08 08:41:31;;;;;;;28.10;15.38;;;13.80;99.90;;;14.30;79.69;102860.06;4991590;28;20194;-75
2021/10/08 08:43:58;;;;;;;28.95;15.27;;;13.90;99.90;;;14.39;79.39;102864.31;4989357;28;20262;-74
2021/10/08 08:46:25;;;;;;;28.75;15.20;;;13.90;99.90;;;14.46;79.15;102861.53;4992203;28;20190;-73
2021/10/08 08:48:53;;;;;;;33.92;16.17;;;14.10;99.90;;;14.51;78.63;102859.69;4988778;28;20198;-74
2021/10/08 08:51:25;;;;;;;30.35;14.25;;;14.20;99.90;;;14.59;78.47;102863.03;4995016;28;20640;-75
2021/10/08 08:53:58;;;;;;;31.75;15.25;;;14.30;99.90;;;14.69;77.84;102858.44;4994239;28;20582;-73
2021/10/08 08:56:26;;;;;;;27.30;13.52;;;14.40;99.90;;;14.78;77.04;102858.28;4996801;28;20191;-72
2021/10/08 08:59:00;;;;;;;27.38;13.93;;;14.50;99.90;;;14.82;75.88;102866.09;4996035;28;20222;-75
2021/10/08 09:01:36;;;;;;;27.52;13.98;;;14.50;99.90;;;14.87;75.20;102858.94;4995513;28;20225;-75
2021/10/08 09:04:11;;;;;;;27.00;13.30;;;14.60;99.90;;;14.94;74.33;102862.31;4993347;28;20219;-74
2021/10/08 09:06:41;;;;;;;28.85;13.52;;;14.70;99.90;;;14.99;73.69;102858.69;4995984;28;20190;-73
2021/10/08 09:09:23;;;;;;;26.67;13.20;;;14.70;99.90;;;15.06;73.15;102860.31;4999453;28;20194;-74
2021/10/08 09:11:57;;;;;;;28.80;13.73;;;14.80;99.90;;;15.06;73.05;102852.41;4995937;28;20613;-75
2021/10/08 09:14:27;;;;;;;28.40;12.10;;;14.80;99.90;;;15.08;72.97;102858.53;4997081;28;20223;-74
2021/10/08 09:17:20;;;;;;;27.13;12.82;;;14.90;99.90;;;15.12;72.46;102850.53;4999005;28;20194;-75
2021/10/08 09:19:57;;;;;;;25.23;12.23;;;14.90;99.90;;;15.20;72.69;102856.50;4997405;28;20221;-73
2021/10/08 09:22:28;;;;;;;25.83;12.65;;;15.00;99.90;;;15.29;72.67;102845.75;4997152;28;20745;-73
2021/10/08 09:25:15;;;;;;;24.73;12.25;;;15.10;99.90;;;15.38;71.62;102845.53;4995537;28;20238;-73
2021/10/08 09:27:46;;;;;;;27.10;11.40;;;15.20;99.90;;;15.46;70.91;102840.97;4994841;28;20206;-75
2021/10/08 09:30:14;;;;;;;21.00;10.27;;;15.30;99.90;;;15.55;69.55;102856.59;5000564;28;20194;-78
2021/10/08 09:32:45;;;;;;;20.20;9.93;;;15.40;99.90;;;15.60;68.19;102847.69;5080499;23;20252;-75
2021/10/08 09:35:22;;;;;;;25.67;10.23;;;15.40;99.90;;;15.66;67.14;102846.66;5035480;28;20258;-76
2021/10/08 09:37:57;;;;;;;25.45;10.50;;;15.50;99.90;;;15.65;65.87;102851.09;5002489;28;20186;-76
2021/10/08 09:40:28;;;;;;;24.85;9.80;;;15.50;99.90;;;15.65;65.66;102850.22;4995330;28;20202;-75
2021/10/08 09:43:07;;;;;;;21.60;9.63;;;15.50;99.90;;;15.68;65.64;102850.13;5007623;28;20209;-74
2021/10/08 09:45:47;;;;;;;19.67;8.73;;;15.50;99.90;;;15.70;64.42;102843.91;5010900;28;20194;-74
2021/10/08 09:48:14;;;;;;;22.60;8.90;;;15.50;99.90;;;15.75;64.43;102846.44;5011403;28;20179;-74
2021/10/08 09:51:03;;;;;;;21.15;9.10;;;15.50;99.90;;;15.79;63.44;102848.13;5013273;28;20197;-74
2021/10/08 09:53:32;;;;;;;19.15;8.70;;;15.60;99.90;;;15.80;62.69;102844.56;5004964;28;20199;-74
2021/10/08 09:56:00;;;;;;;20.33;7.95;;;15.60;99.90;;;15.82;62.22;102834.81;5042624;28;20263;-75
2021/10/08 09:58:44;;;;;;;19.75;7.57;;;15.60;99.90;;;15.85;61.76;102829.47;5003031;28;20201;-76
2021/10/08 10:01:25;;;;;;;20.63;7.28;;;15.60;99.90;;;15.89;61.13;102836.41;5006227;28;20640;-75
2021/10/08 10:03:53;;;;;;;19.95;7.43;;;15.70;99.90;;;15.92;60.37;102836.34;5022794;28;20214;-74
2021/10/08 10:06:21;;;;;;;24.88;8.02;;;15.70;99.90;;;15.95;60.12;102836.25;5017735;28;20181;-75
2021/10/08 10:08:48;;;;;;;14.93;6.53;;;15.70;99.90;;;15.95;59.63;102823.91;5018934;28;20199;-75